KNUWKFHR

Guest
Details From KNUW - Whidbey Island Nas
To KFHR - Friday Harbor
Flight Number -
Tags Generated
Created
Modified
Stats Distance 18 nm / 32 km
Max Altitude 0 ft / 0 m
Waypoints 2
Social Downloads 6
Likes 0
Share VATSIM

Download

Looking for another format? Having issues loading an existing format? Contact us
Advertisement - Login to hide

Notes

Generated

Route

KNUW KFHR

ID Type Via Altitude Latitude Longitude Leg Dist Tot Dist Heading (true) Name
O KNUW APT - 0 ft / 0 m 48.36167˚ -122.66246˚ - 0 nm - -
O KFHR APT - 0 ft / 0 m 48.52662˚ -123.02473˚ 17 nm 17 nm 305° / 304° -

Altitude Profile

Advertisement - Login to hide

KNUW

Details ICAO KNUW (NUW)
Name WHIDBEY ISLAND NAS
Region United States
Timezone America/Los_Angeles (UTC-7.0)
Stats Elevation 47 ft / 14 m (AMSL)
Location 48.351803° -122.655907°
Runways 2
Magnetic Variation 15.901° E

METAR

KNUW 242156Z 26007KT 10SM FEW021 SCT040 SCT220 16/10 A3012 RMK AO2 SLP199 T01610100 $

Decode

TAF

TAF KNUW 2415/2515 25010G16KT 9999 FEW010 BKN020 BKN050 BKN250 QNH3002INS TEMPO 2415/2418 23007KT 9999 VCFG SCT007 BKN015 OVC040 FM242000 25009KT 9999 SCT025 BKN035 BKN120 BKN250 QNH3004INS TEMPO 2420/2422 VRB06KT 9999 SCT025 BKN040 BKN140 BECMG 2422/2500 26008G15KT 9999 SCT040 SCT080 QNH3000INS TEMPO 2511/2515 22006KT 4800 BR VCFG BKN010 T11/2413Z T17/2423Z FS30004

Decode

Departure Runways

ID Width Length Bearing (true) Bearing (mag) Surface Threshold Offset Overrun Length
07 200 ft / 61 m 7,977 ft / 2,432 m 86.95° 71.05° Concrete 0 ft / 0 m 1,000 ft / 305 m
13 200 ft / 61 m 7,999 ft / 2,438 m 154.71° 138.81° Concrete 0 ft / 0 m 1,000 ft / 305 m
25 200 ft / 61 m 7,977 ft / 2,432 m 266.97° 251.07° Concrete 0 ft / 0 m 1,000 ft / 305 m
31 200 ft / 61 m 7,999 ft / 2,438 m 334.72° 318.82° Concrete 0 ft / 0 m 1,000 ft / 305 m

KFHR

Details ICAO KFHR (FRD)
Name FRIDAY HARBOR
Region United States
Timezone America/Los_Angeles (UTC-7.0)
Stats Elevation 113 ft / 34 m (AMSL)
Location 48.521966° -123.024368°
Runways 1
Magnetic Variation 16.006° E

METAR

KFHR 242153Z AUTO 17009G16KT 10SM CLR 18/10 A3008 RMK AO2 SLP186 T01830100 TSNO

Decode

TAF

Not found

Destination Runways

ID Width Length Bearing (true) Bearing (mag) Surface Threshold Offset Overrun Length
16 75 ft / 23 m 3,402 ft / 1,037 m 177.06° 161.05° Asphalt 0 ft / 0 m 0 ft / 0 m
34 75 ft / 23 m 3,402 ft / 1,037 m 357.06° 341.05° Asphalt 0 ft / 0 m 0 ft / 0 m

Popular Alternatives